Time;durP1;ratioP1;P1;durP2;ratioP2;P2;SDS_P1;SDS_P2;PMS_P1;PMS_P2;Temp;Humidity;BMP_temperature;BMP_pressure;BME280_temperature;BME280_humidity;BME280_pressure;Samples;Min_cycle;Max_cycle;Signal;HPM_P1;HPM_P2
2023/05/27 00:00:45;;;;;;;20.50;5.07;;;8.00;99.90;;;;;;5022918;28;20062;-70
2023/05/27 00:03:11;;;;;;;25.00;5.50;;;7.90;99.90;;;;;;4956680;28;209189;-70
2023/05/27 00:05:37;;;;;;;17.08;4.68;;;7.90;99.90;;;;;;5003615;28;20050;-70
2023/05/27 00:08:06;;;;;;;16.13;4.20;;;7.90;99.90;;;;;;4962230;28;244147;-70
2023/05/27 00:10:35;;;;;;;20.95;6.05;;;7.90;99.90;;;;;;4968650;28;20050;-71
2023/05/27 00:13:01;;;;;;;18.98;5.47;;;7.80;99.90;;;;;;4973768;28;206845;-71
2023/05/27 00:15:27;;;;;;;17.40;5.07;;;7.80;99.90;;;;;;4955420;28;200796;-72
2023/05/27 00:17:54;;;;;;;21.80;5.32;;;7.70;99.90;;;;;;4990231;28;20069;-70
2023/05/27 00:20:22;;;;;;;17.60;4.82;;;7.70;99.90;;;;;;4967160;28;206365;-70
2023/05/27 00:22:49;;;;;;;20.45;5.22;;;7.60;99.90;;;;;;4990811;28;20058;-70
2023/05/27 00:25:20;;;;;;;21.88;5.38;;;7.60;99.90;;;;;;4962120;28;209626;-71
2023/05/27 00:27:47;;;;;;;19.63;5.10;;;7.50;99.90;;;;;;4990083;28;20046;-70
2023/05/27 00:30:13;;;;;;;18.83;4.80;;;7.50;99.90;;;;;;4960287;28;204886;-71
2023/05/27 00:32:39;;;;;;;21.63;5.25;;;7.50;99.90;;;;;;4989090;28;20085;-71
2023/05/27 00:35:06;;;;;;;22.08;5.32;;;7.40;99.90;;;;;;4960365;28;219218;-70
2023/05/27 00:37:32;;;;;;;30.17;5.90;;;7.40;99.90;;;;;;4986810;28;20061;-71
2023/05/27 00:39:58;;;;;;;22.83;6.10;;;7.40;99.90;;;;;;4969701;28;207611;-70
2023/05/27 00:42:24;;;;;;;17.50;4.90;;;7.30;99.90;;;;;;4977868;28;20058;-73
2023/05/27 00:44:50;;;;;;;20.90;4.82;;;7.30;99.90;;;;;;4955081;28;209421;-71
2023/05/27 00:47:17;;;;;;;21.88;5.50;;;7.30;99.90;;;;;;5006650;28;20054;-71
2023/05/27 00:49:45;;;;;;;24.98;6.30;;;7.20;99.90;;;;;;4970056;28;210089;-71
2023/05/27 00:52:13;;;;;;;24.23;7.22;;;7.20;99.90;;;;;;5013759;28;20045;-72
2023/05/27 00:54:42;;;;;;;21.50;6.40;;;7.20;99.90;;;;;;4979810;28;205887;-71
2023/05/27 00:57:08;;;;;;;21.13;6.03;;;7.20;99.90;;;;;;4991888;28;20054;-71
2023/05/27 00:59:34;;;;;;;24.17;6.72;;;7.10;99.90;;;;;;4946942;28;210099;-71
2023/05/27 01:02:00;;;;;;;21.52;5.72;;;7.10;99.90;;;;;;5017260;28;20062;-71
2023/05/27 01:04:27;;;;;;;23.33;6.00;;;7.10;99.90;;;;;;4953555;28;206395;-72
2023/05/27 01:07:08;;;;;;;21.92;6.03;;;7.10;99.90;;;;;;5009855;28;20056;-70
2023/05/27 01:10:03;;;;;;;17.80;5.35;;;7.00;99.90;;;;;;4963296;28;204633;-70
2023/05/27 01:12:44;;;;;;;18.73;5.18;;;7.00;99.90;;;;;;5007484;28;20068;-70
2023/05/27 01:15:11;;;;;;;22.17;5.97;;;6.90;99.90;;;;;;4982224;28;207426;-70
2023/05/27 01:17:42;;;;;;;17.50;5.18;;;6.90;99.90;;;;;;5010588;28;20045;-69
2023/05/27 01:20:10;;;;;;;19.60;5.80;;;6.90;99.90;;;;;;4956279;28;210472;-71
2023/05/27 01:22:37;;;;;;;17.75;5.82;;;6.90;99.90;;;;;;4987474;28;20050;-72
2023/05/27 01:25:03;;;;;;;21.20;6.20;;;6.90;99.90;;;;;;4966743;28;206573;-71
2023/05/27 01:27:30;;;;;;;18.13;5.85;;;6.90;99.90;;;;;;5022838;28;21434;-71
2023/05/27 01:29:56;;;;;;;16.95;5.43;;;6.80;99.90;;;;;;4975161;28;206942;-71
2023/05/27 01:32:40;;;;;;;17.40;4.95;;;6.80;99.90;;;;;;5006369;28;20050;-71
2023/05/27 01:35:09;;;;;;;20.92;5.55;;;6.80;99.90;;;;;;4966570;28;208422;-71
2023/05/27 01:37:38;;;;;;;19.50;5.70;;;6.80;99.90;;;;;;4990226;28;20411;-73
2023/05/27 01:40:08;;;;;;;17.25;5.25;;;6.80;99.90;;;;;;4939688;28;209476;-71
2023/05/27 01:42:37;;;;;;;18.98;5.00;;;6.70;99.90;;;;;;4990809;28;20061;-71
2023/05/27 01:45:05;;;;;;;17.20;5.55;;;6.70;99.90;;;;;;4962814;28;207044;-72
2023/05/27 01:47:32;;;;;;;18.42;5.95;;;6.70;99.90;;;;;;4993524;28;20058;-71
2023/05/27 01:49:58;;;;;;;18.83;6.00;;;6.70;99.90;;;;;;4935273;28;208513;-71
2023/05/27 01:52:24;;;;;;;17.15;5.68;;;6.70;99.90;;;;;;4992553;28;20061;-71
2023/05/27 01:54:50;;;;;;;20.95;5.50;;;6.60;99.90;;;;;;4923475;28;163564;-71
2023/05/27 01:57:17;;;;;;;21.35;5.50;;;6.60;99.90;;;;;;4989532;28;20042;-71
2023/05/27 01:59:43;;;;;;;24.27;6.95;;;6.60;99.90;;;;;;4945243;28;207711;-72
2023/05/27 02:02:09;;;;;;;23.00;7.00;;;6.60;99.90;;;;;;4995614;28;20058;-72
2023/05/27 02:04:36;;;;;;;21.27;6.10;;;6.60;99.90;;;;;;4964331;28;128147;-71
2023/05/27 02:07:03;;;;;;;17.45;6.82;;;6.50;99.90;;;;;;4996137;28;20057;-70
2023/05/27 02:09:29;;;;;;;23.90;7.53;;;6.50;99.90;;;;;;4963935;28;207565;-70
2023/05/27 02:11:55;;;;;;;23.05;6.55;;;6.60;99.90;;;;;;4996843;28;20054;-69
2023/05/27 02:14:21;;;;;;;20.02;5.97;;;6.60;99.90;;;;;;4956312;28;208099;-73
2023/05/27 02:16:49;;;;;;;18.92;6.35;;;6.60;99.90;;;;;;5000612;28;20258;-71
2023/05/27 02:19:16;;;;;;;22.92;6.72;;;6.50;99.90;;;;;;4953005;28;207497;-70
2023/05/27 02:21:42;;;;;;;17.73;5.65;;;6.60;99.90;;;;;;5004092;28;20062;-70
2023/05/27 02:24:08;;;;;;;22.00;7.15;;;6.60;99.90;;;;;;4940627;28;208700;-70
2023/05/27 02:26:34;;;;;;;23.48;6.43;;;6.70;99.90;;;;;;4999743;28;20050;-71
2023/05/27 02:29:00;;;;;;;19.60;5.55;;;6.60;99.90;;;;;;4942724;28;207560;-72
2023/05/27 02:31:26;;;;;;;17.75;5.43;;;6.60;99.90;;;;;;5007899;28;20427;-71
2023/05/27 02:33:52;;;;;;;23.90;6.38;;;6.60;99.90;;;;;;4948093;28;206963;-72
2023/05/27 02:36:20;;;;;;;19.17;5.53;;;6.60;99.90;;;;;;4997487;28;20058;-72
2023/05/27 02:38:47;;;;;;;24.52;6.57;;;6.60;99.90;;;;;;4946817;28;211786;-75
2023/05/27 02:41:13;;;;;;;19.10;6.60;;;6.60;99.90;;;;;;5017070;28;20033;-71
2023/05/27 02:43:39;;;;;;;24.05;7.10;;;6.70;99.90;;;;;;4946386;28;207771;-72
2023/05/27 02:46:05;;;;;;;26.20;7.55;;;6.80;99.90;;;;;;4990456;28;20053;-71
2023/05/27 02:48:31;;;;;;;25.85;8.07;;;6.80;99.90;;;;;;4930444;28;205588;-71
2023/05/27 02:50:57;;;;;;;19.25;6.78;;;6.90;99.90;;;;;;4993625;28;20493;-74
2023/05/27 02:53:23;;;;;;;25.88;7.55;;;6.90;99.90;;;;;;4942547;28;218554;-71
2023/05/27 02:55:50;;;;;;;22.63;6.78;;;7.00;99.90;;;;;;5028999;28;20068;-71
2023/05/27 02:58:16;;;;;;;24.27;7.28;;;7.00;99.90;;;;;;4944786;28;207180;-71
2023/05/27 03:00:42;;;;;;;20.70;6.45;;;7.00;99.90;;;;;;5035884;28;20534;-71
2023/05/27 03:03:08;;;;;;;28.23;6.90;;;7.00;99.90;;;;;;4949294;28;214234;-70
2023/05/27 03:05:35;;;;;;;24.00;6.95;;;7.10;99.90;;;;;;5018576;28;20057;-71
2023/05/27 03:08:02;;;;;;;16.60;6.30;;;7.10;99.90;;;;;;4993667;28;207813;-75
2023/05/27 03:10:28;;;;;;;23.55;7.22;;;7.00;99.90;;;;;;4992297;28;20061;-72
2023/05/27 03:12:55;;;;;;;22.75;6.32;;;7.00;99.90;;;;;;5010088;28;20053;-73
2023/05/27 03:15:21;;;;;;;21.23;5.97;;;7.00;99.90;;;;;;4961804;28;207657;-70
2023/05/27 03:17:47;;;;;;;21.38;6.25;;;7.00;99.90;;;;;;5012228;28;20046;-73
2023/05/27 03:20:13;;;;;;;21.45;6.40;;;6.90;99.90;;;;;;4981325;28;207719;-72
2023/05/27 03:22:40;;;;;;;22.15;6.55;;;7.00;99.90;;;;;;5010955;28;20049;-70
2023/05/27 03:25:06;;;;;;;18.70;5.95;;;7.00;99.90;;;;;;4971450;28;80689;-71
2023/05/27 03:27:32;;;;;;;24.40;6.20;;;7.00;99.90;;;;;;4995983;28;20428;-71
2023/05/27 03:29:58;;;;;;;21.50;5.63;;;7.10;99.90;;;;;;4979147;28;212277;-71
2023/05/27 03:32:24;;;;;;;25.40;7.00;;;7.10;99.90;;;;;;5014113;28;20050;-71
2023/05/27 03:34:51;;;;;;;16.98;5.13;;;7.10;99.90;;;;;;4966053;28;208063;-72
2023/05/27 03:37:17;;;;;;;23.02;6.75;;;7.20;99.90;;;;;;5011266;28;20058;-72
2023/05/27 03:39:43;;;;;;;23.25;6.65;;;7.20;99.90;;;;;;4969968;28;222903;-70
2023/05/27 03:42:09;;;;;;;23.67;6.65;;;7.20;99.90;;;;;;4991251;28;20053;-72
2023/05/27 03:44:35;;;;;;;23.42;7.03;;;7.20;99.90;;;;;;4968980;28;205996;-71
2023/05/27 03:47:02;;;;;;;29.90;7.57;;;7.20;99.90;;;;;;5008495;28;20054;-71
2023/05/27 03:49:28;;;;;;;24.65;6.72;;;7.20;99.90;;;;;;4957890;28;215477;-71
2023/05/27 03:51:55;;;;;;;29.85;7.78;;;7.20;99.90;;;;;;4984012;28;20069;-73
2023/05/27 03:54:21;;;;;;;22.70;7.18;;;7.30;99.90;;;;;;4957362;28;206785;-71
2023/05/27 03:56:47;;;;;;;21.88;6.20;;;7.30;99.90;;;;;;5007140;28;20046;-72
2023/05/27 03:59:13;;;;;;;21.95;6.63;;;7.30;99.90;;;;;;4936868;28;205704;-70
2023/05/27 04:01:39;;;;;;;22.95;6.35;;;7.30;99.90;;;;;;4997140;28;20058;-70
2023/05/27 04:04:05;;;;;;;21.30;6.82;;;7.40;99.90;;;;;;4947773;28;206072;-70
2023/05/27 04:06:31;;;;;;;19.33;5.78;;;7.50;99.90;;;;;;4992108;28;20495;-72
2023/05/27 04:08:57;;;;;;;21.90;6.35;;;7.60;99.90;;;;;;4973544;28;160634;-71
2023/05/27 04:11:27;;;;;;;27.27;6.35;;;7.60;99.90;;;;;;5008416;28;20450;-71
2023/05/27 04:13:53;;;;;;;26.08;6.45;;;7.70;99.90;;;;;;4947647;28;224202;-71
2023/05/27 04:16:21;;;;;;;25.83;6.55;;;7.70;99.90;;;;;;5011792;28;20049;-71
2023/05/27 04:18:51;;;;;;;22.30;6.28;;;7.80;99.90;;;;;;4939437;28;207428;-72
2023/05/27 04:21:20;;;;;;;22.77;6.85;;;7.80;99.90;;;;;;5003002;28;20104;-71
2023/05/27 04:23:46;;;;;;;25.10;6.78;;;7.90;99.90;;;;;;4946526;28;210304;-71
2023/05/27 04:26:14;;;;;;;23.13;6.15;;;7.90;99.90;;;;;;5018309;28;20050;-71
2023/05/27 04:28:40;;;;;;;21.25;6.50;;;8.00;99.90;;;;;;4959962;28;212390;-71
2023/05/27 04:31:12;;;;;;;24.88;6.55;;;8.00;99.90;;;;;;5001730;28;20069;-71
2023/05/27 04:33:45;;;;;;;23.77;7.20;;;8.00;99.90;;;;;;4958987;28;213505;-71
2023/05/27 04:36:11;;;;;;;20.70;5.65;;;8.10;99.90;;;;;;5018333;28;20046;-71
2023/05/27 04:38:38;;;;;;;25.38;6.18;;;8.10;99.90;;;;;;4954652;28;206709;-73
2023/05/27 04:41:04;;;;;;;19.15;6.03;;;8.20;99.90;;;;;;5036297;28;20577;-72
2023/05/27 04:43:30;;;;;;;26.77;7.05;;;8.20;99.90;;;;;;4961074;28;209157;-72
2023/05/27 04:45:59;;;;;;;18.75;5.95;;;8.30;99.90;;;;;;5023910;28;20042;-71
2023/05/27 04:48:26;;;;;;;23.33;6.47;;;8.40;99.90;;;;;;4967154;28;210817;-71
2023/05/27 04:50:54;;;;;;;29.10;6.90;;;8.50;99.90;;;;;;5007013;28;20061;-73
2023/05/27 04:53:21;;;;;;;23.60;7.00;;;8.60;99.90;;;;;;4949412;28;211026;-70
2023/05/27 04:55:47;;;;;;;22.88;5.93;;;8.70;99.90;;;;;;5001639;28;20041;-70
2023/05/27 04:58:13;;;;;;;24.92;6.30;;;8.80;99.90;;;;;;4937670;28;207629;-71
2023/05/27 05:00:49;;;;;;;24.27;6.05;;;8.90;99.90;;;;;;5026787;28;20760;-73
2023/05/27 05:03:36;;;;;;;26.65;6.60;;;9.00;99.90;;;;;;4969716;28;214564;-71
2023/05/27 05:06:03;;;;;;;17.27;5.85;;;9.10;99.90;;;;;;5032886;28;20050;-71
2023/05/27 05:08:29;;;;;;;22.20;5.55;;;9.20;99.90;;;;;;4969442;28;207505;-72
2023/05/27 05:10:55;;;;;;;23.95;6.35;;;9.20;99.90;;;;;;5016378;28;20050;-71
2023/05/27 05:13:28;;;;;;;24.77;6.13;;;9.30;99.90;;;;;;4963066;28;210278;-70
2023/05/27 05:15:54;;;;;;;25.40;5.88;;;9.30;99.90;;;;;;5018461;28;20065;-72
2023/05/27 05:18:21;;;;;;;23.33;5.60;;;9.40;99.90;;;;;;4950143;28;215304;-71
2023/05/27 05:20:47;;;;;;;25.65;5.82;;;9.40;99.90;;;;;;5009013;28;20054;-72
2023/05/27 05:23:13;;;;;;;22.77;5.88;;;9.40;99.90;;;;;;4951416;28;248023;-71
2023/05/27 05:25:39;;;;;;;20.23;5.90;;;9.50;99.90;;;;;;5028257;28;20050;-71
2023/05/27 05:28:06;;;;;;;24.80;6.20;;;9.50;99.90;;;;;;4962571;28;209282;-71
2023/05/27 05:30:32;;;;;;;21.60;5.55;;;9.60;99.90;;;;;;4970114;28;20046;-70
2023/05/27 05:32:58;;;;;;;29.02;6.00;;;9.60;99.90;;;;;;4998701;28;20049;-71
2023/05/27 05:35:25;;;;;;;21.50;5.53;;;9.70;99.90;;;;;;4977851;28;208301;-71
2023/05/27 05:37:51;;;;;;;23.58;5.68;;;9.80;99.90;;;;;;4998084;28;20057;-71
2023/05/27 05:40:17;;;;;;;31.00;6.10;;;9.90;99.90;;;;;;4978294;28;301832;-70
2023/05/27 05:42:43;;;;;;;21.90;5.45;;;10.10;99.90;;;;;;5016159;28;20064;-70
2023/05/27 05:45:09;;;;;;;24.75;5.70;;;10.30;99.90;;;;;;4972703;28;235612;-69
2023/05/27 05:47:35;;;;;;;23.70;5.43;;;10.60;99.90;;;;;;5007001;28;20285;-70
2023/05/27 05:50:01;;;;;;;24.33;5.60;;;10.90;99.90;;;;;;4958230;28;210723;-71
2023/05/27 05:52:28;;;;;;;23.17;5.35;;;11.20;99.90;;;;;;5016105;28;20061;-71
2023/05/27 05:54:54;;;;;;;22.58;5.07;;;11.40;99.90;;;;;;4977624;28;225153;-70
2023/05/27 05:57:20;;;;;;;22.27;5.88;;;11.70;99.90;;;;;;5001685;28;20065;-71
2023/05/27 05:59:46;;;;;;;19.27;4.75;;;12.00;99.90;;;;;;4946072;28;218454;-72
2023/05/27 06:02:12;;;;;;;21.85;5.20;;;12.30;99.90;;;;;;5017247;28;20049;-70
2023/05/27 06:04:38;;;;;;;19.83;4.47;;;12.50;99.90;;;;;;4950531;28;216161;-71
2023/05/27 06:07:04;;;;;;;21.63;4.70;;;12.70;99.90;;;;;;4995595;28;20046;-71
2023/05/27 06:09:31;;;;;;;21.23;4.85;;;12.80;99.90;;;;;;4954547;28;210188;-70
2023/05/27 06:11:57;;;;;;;24.15;5.18;;;13.00;99.90;;;;;;4996687;28;20060;-70
2023/05/27 06:14:23;;;;;;;23.95;4.80;;;13.10;99.90;;;;;;4974839;28;140264;-72
2023/05/27 06:16:49;;;;;;;18.27;4.90;;;13.30;99.90;;;;;;5000050;28;20058;-69
2023/05/27 06:19:16;;;;;;;21.88;4.80;;;13.50;99.90;;;;;;4957334;28;207831;-71
2023/05/27 06:21:42;;;;;;;21.05;4.88;;;13.60;99.90;;;;;;5007920;28;20450;-70
2023/05/27 06:24:08;;;;;;;20.48;4.10;;;13.60;99.90;;;;;;4969833;28;209395;-70
2023/05/27 06:26:34;;;;;;;20.20;4.60;;;13.60;99.90;;;;;;5001259;28;20058;-73
2023/05/27 06:29:00;;;;;;;22.30;4.15;;;13.80;99.90;;;;;;4950065;28;215027;-71
2023/05/27 06:31:27;;;;;;;23.70;4.85;;;14.10;99.90;;;;;;4996361;28;20050;-70
2023/05/27 06:33:53;;;;;;;16.58;3.97;;;14.40;99.90;;;;;;4938868;28;237541;-71
2023/05/27 06:36:19;;;;;;;26.98;4.45;;;14.50;99.90;;;;;;4990834;28;20077;-70
2023/05/27 06:38:45;;;;;;;18.25;4.10;;;14.60;99.90;;;;;;4948917;28;213254;-70
2023/05/27 06:41:12;;;;;;;24.40;4.85;;;14.80;99.90;;;;;;5004539;28;20061;-69
2023/05/27 06:43:38;;;;;;;25.15;4.88;;;15.10;99.90;;;;;;4947426;28;207550;-70
2023/05/27 06:46:04;;;;;;;21.13;4.28;;;15.30;99.90;;;;;;5034243;28;20218;-71
2023/05/27 06:48:30;;;;;;;18.65;4.07;;;15.40;99.90;;;;;;4934790;28;211653;-71
2023/05/27 06:50:56;;;;;;;25.75;4.93;;;15.50;99.90;;;;;;5006812;28;20523;-71
2023/05/27 06:53:22;;;;;;;22.85;4.25;;;15.60;99.90;;;;;;4930814;28;207616;-71
2023/05/27 06:55:48;;;;;;;22.00;4.60;;;15.40;99.90;;;;;;5015716;28;20055;-70
2023/05/27 06:58:14;;;;;;;19.70;4.07;;;15.60;99.90;;;;;;4914735;28;226822;-70
2023/05/27 07:00:40;;;;;;;17.48;3.78;;;15.60;99.90;;;;;;4998980;28;20042;-73
2023/05/27 07:03:06;;;;;;;20.50;4.18;;;15.90;99.90;;;;;;4944984;28;214339;-71
2023/05/27 07:05:32;;;;;;;22.33;4.50;;;15.80;99.90;;;;;;5017935;28;20057;-71
2023/05/27 07:07:58;;;;;;;19.48;4.18;;;16.10;99.90;;;;;;4986365;28;20050;-71
2023/05/27 07:10:25;;;;;;;17.80;3.97;;;16.20;99.90;;;;;;4949637;28;149022;-71
2023/05/27 07:12:51;;;;;;;20.27;4.05;;;16.60;99.90;;;;;;4983957;28;20171;-70
2023/05/27 07:15:17;;;;;;;20.77;4.40;;;16.50;99.90;;;;;;4958877;28;230528;-71
2023/05/27 07:17:43;;;;;;;20.50;4.35;;;16.50;99.90;;;;;;4984982;28;20050;-69
2023/05/27 07:20:10;;;;;;;19.48;4.00;;;16.60;99.90;;;;;;4967303;28;213876;-74
2023/05/27 07:22:36;;;;;;;21.98;4.25;;;16.70;99.90;;;;;;5002497;28;20053;-70
2023/05/27 07:25:02;;;;;;;17.45;4.22;;;16.80;99.90;;;;;;4967500;28;208169;-70
2023/05/27 07:27:28;;;;;;;20.10;4.60;;;16.60;99.90;;;;;;4998542;28;20053;-69
2023/05/27 07:29:54;;;;;;;18.95;4.47;;;16.50;99.90;;;;;;4952937;28;207918;-70
2023/05/27 07:32:22;;;;;;;19.42;3.97;;;16.80;99.90;;;;;;4985561;28;20054;-74
2023/05/27 07:34:48;;;;;;;20.35;4.22;;;16.90;99.90;;;;;;4959588;28;207490;-71
2023/05/27 07:37:14;;;;;;;18.05;4.10;;;17.00;99.90;;;;;;4991147;28;20057;-71
2023/05/27 07:39:40;;;;;;;17.98;3.92;;;16.90;99.90;;;;;;4972040;28;206384;-73
2023/05/27 07:42:06;;;;;;;22.25;4.38;;;17.20;99.90;;;;;;5013642;28;20046;-71
2023/05/27 07:44:32;;;;;;;18.33;3.80;;;16.90;99.90;;;;;;4966283;28;227743;-70
2023/05/27 07:47:00;;;;;;;16.65;4.07;;;17.10;99.90;;;;;;4996573;28;20082;-72
2023/05/27 07:49:26;;;;;;;21.40;4.80;;;17.10;99.90;;;;;;4932026;28;207817;-70
2023/05/27 07:51:52;;;;;;;19.50;4.00;;;17.00;99.70;;;;;;4984143;28;20054;-71
2023/05/27 07:54:18;;;;;;;17.33;4.03;;;17.30;99.90;;;;;;4945115;28;211020;-70
2023/05/27 07:56:44;;;;;;;18.00;4.10;;;17.80;99.80;;;;;;4996210;28;20061;-71
2023/05/27 07:59:10;;;;;;;19.05;4.20;;;17.40;99.00;;;;;;4938914;28;207200;-71
2023/05/27 08:01:40;;;;;;;18.08;4.22;;;17.80;99.40;;;;;;5002800;28;20070;-74
2023/05/27 08:04:06;;;;;;;18.73;4.30;;;18.30;99.30;;;;;;4940693;28;223033;-71
2023/05/27 08:06:32;;;;;;;20.08;4.80;;;18.30;98.80;;;;;;4998148;28;20045;-71
2023/05/27 08:08:58;;;;;;;19.52;4.22;;;18.10;98.40;;;;;;4945291;28;207632;-69
2023/05/27 08:11:25;;;;;;;16.92;3.88;;;18.50;98.80;;;;;;4997505;28;20065;-73
2023/05/27 08:13:51;;;;;;;17.13;4.50;;;18.80;98.50;;;;;;4967494;28;210849;-69
2023/05/27 08:16:17;;;;;;;17.33;4.45;;;18.70;98.10;;;;;;5000741;28;20058;-72
2023/05/27 08:18:43;;;;;;;19.13;4.20;;;18.90;97.70;;;;;;4947494;28;208833;-71
2023/05/27 08:21:09;;;;;;;21.08;4.43;;;19.30;98.00;;;;;;5009684;28;20065;-69
2023/05/27 08:23:36;;;;;;;15.68;3.90;;;19.90;97.80;;;;;;4933181;28;208706;-71
2023/05/27 08:26:02;;;;;;;20.20;4.18;;;20.20;97.50;;;;;;4994183;28;20050;-71
2023/05/27 08:28:28;;;;;;;17.00;4.15;;;20.50;96.90;;;;;;4942012;28;209923;-72
2023/05/27 08:30:54;;;;;;;20.48;4.00;;;20.70;96.40;;;;;;5023228;28;20042;-73
2023/05/27 08:33:21;;;;;;;21.90;4.57;;;21.00;96.30;;;;;;4949464;28;211369;-73
2023/05/27 08:35:47;;;;;;;15.00;4.20;;;21.50;96.30;;;;;;5015616;28;20407;-71
2023/05/27 08:38:13;;;;;;;18.75;4.15;;;21.90;95.60;;;;;;4916439;28;208883;-71
2023/05/27 08:40:41;;;;;;;16.48;4.20;;;22.20;95.20;;;;;;5008664;28;20132;-72
2023/05/27 08:43:08;;;;;;;16.42;3.83;;;22.30;94.00;;;;;;4957476;28;208554;-71
2023/05/27 08:45:34;;;;;;;19.55;4.15;;;22.60;94.30;;;;;;5008606;28;20050;-71
2023/05/27 08:48:02;;;;;;;18.23;4.47;;;22.70;94.20;;;;;;4975622;28;207855;-73
2023/05/27 08:50:28;;;;;;;21.63;4.25;;;23.00;93.80;;;;;;4982077;28;171485;-72
2023/05/27 08:52:54;;;;;;;18.92;4.72;;;22.80;93.90;;;;;;5009860;28;20049;-73
2023/05/27 08:55:21;;;;;;;18.75;4.82;;;22.40;93.80;;;;;;4977888;28;211009;-71
2023/05/27 08:58:01;;;;;;;15.23;4.13;;;22.70;93.80;;;;;;5006988;28;20054;-71
2023/05/27 09:00:27;;;;;;;16.92;4.40;;;23.30;93.40;;;;;;4963007;28;237701;-73
2023/05/27 09:02:59;;;;;;;14.35;4.00;;;23.50;93.30;;;;;;5007509;28;20068;-73
2023/05/27 09:05:26;;;;;;;18.55;4.93;;;23.40;93.00;;;;;;4955397;28;206524;-71
2023/05/27 09:07:52;;;;;;;17.50;4.63;;;23.40;92.60;;;;;;5035783;28;20049;-73
2023/05/27 09:10:18;;;;;;;16.40;4.35;;;23.80;92.70;;;;;;4971491;28;134778;-70
2023/05/27 09:12:45;;;;;;;16.20;4.10;;;23.80;91.70;;;;;;5006244;28;20054;-72
2023/05/27 09:15:12;;;;;;;19.38;4.15;;;24.30;92.10;;;;;;4979535;28;218277;-72
2023/05/27 09:17:42;;;;;;;16.13;4.45;;;24.40;91.00;;;;;;5008482;28;20064;-70
2023/05/27 09:20:10;;;;;;;15.27;4.18;;;24.70;91.70;;;;;;4962970;28;207616;-71
2023/05/27 09:22:37;;;;;;;17.88;4.93;;;25.30;91.00;;;;;;5007459;28;20050;-72
2023/05/27 09:25:04;;;;;;;17.08;4.78;;;25.30;91.00;;;;;;4930753;28;208063;-71
2023/05/27 09:27:31;;;;;;;18.70;4.80;;;25.50;90.70;;;;;;4982952;28;20519;-72
2023/05/27 09:30:06;;;;;;;18.50;4.70;;;25.80;89.40;;;;;;4957952;28;207379;-71
2023/05/27 09:32:33;;;;;;;17.55;4.93;;;25.20;89.80;;;;;;5005484;28;20064;-70
2023/05/27 09:35:02;;;;;;;16.27;4.63;;;25.00;89.50;;;;;;4965446;28;207414;-71
2023/05/27 09:37:32;;;;;;;19.10;4.93;;;25.30;89.20;;;;;;4983325;28;20165;-71
2023/05/27 09:39:58;;;;;;;19.83;4.93;;;26.00;89.70;;;;;;4923431;28;210088;-71
2023/05/27 09:42:25;;;;;;;18.52;4.93;;;26.60;86.00;;;;;;4987417;28;20055;-71
2023/05/27 09:44:54;;;;;;;18.80;4.60;;;26.90;88.30;;;;;;4967787;28;210556;-75
2023/05/27 09:47:22;;;;;;;15.07;4.45;;;26.80;87.30;;;;;;5011681;28;20057;-71
2023/05/27 09:49:51;;;;;;;20.65;4.90;;;27.20;86.10;;;;;;4965118;28;207080;-71
2023/05/27 09:52:20;;;;;;;19.70;5.18;;;27.40;85.60;;;;;;5002304;28;20053;-72
2023/05/27 09:54:48;;;;;;;17.35;4.88;;;27.50;83.40;;;;;;4957814;28;207410;-71
2023/05/27 09:57:16;;;;;;;17.60;4.47;;;27.70;84.90;;;;;;4987198;28;20097;-72
2023/05/27 09:59:42;;;;;;;15.48;4.60;;;27.70;84.20;;;;;;4949429;28;166955;-71
2023/05/27 10:02:13;;;;;;;15.25;4.28;;;27.40;83.50;;;;;;4994006;28;20069;-71
2023/05/27 10:04:39;;;;;;;15.05;4.25;;;27.50;82.40;;;;;;4967857;28;207933;-72
2023/05/27 10:07:06;;;;;;;17.33;4.38;;;27.70;83.10;;;;;;5008975;28;20053;-72
2023/05/27 10:09:32;;;;;;;14.02;4.18;;;28.20;82.80;;;;;;4966165;28;208027;-75
2023/05/27 10:11:58;;;;;;;22.25;4.78;;;28.80;82.90;;;;;;5009432;28;20534;-73
2023/05/27 10:14:25;;;;;;;15.30;4.80;;;28.90;81.10;;;;;;4960474;28;207253;-71
2023/05/27 10:16:55;;;;;;;14.68;4.80;;;28.50;80.00;;;;;;5010900;28;20419;-72
2023/05/27 10:19:22;;;;;;;;;;;28.50;79.60;;;;;;4973942;28;209855;-70
2023/05/27 10:21:48;;;;;;;15.18;4.65;;;28.30;77.10;;;;;;5001482;28;19955;-71
2023/05/27 10:24:14;;;;;;;15.05;4.60;;;27.60;79.20;;;;;;4963469;28;208317;-72
2023/05/27 10:26:43;;;;;;;18.05;4.90;;;27.50;78.30;;;;;;4997560;28;20057;-71
2023/05/27 10:29:14;;;;;;;13.45;4.00;;;27.00;79.00;;;;;;4947478;28;209816;-72
2023/05/27 10:31:52;;;;;;;20.05;4.82;;;26.90;77.20;;;;;;4999660;28;20404;-71
2023/05/27 10:34:19;;;;;;;17.98;4.85;;;26.20;78.30;;;;;;4964023;28;224277;-71
2023/05/27 10:36:45;;;;;;;19.42;5.57;;;26.20;79.00;;;;;;5021583;28;20061;-71
2023/05/27 10:39:13;;;;;;;16.52;4.60;;;26.40;78.10;;;;;;4958183;28;221964;-72
2023/05/27 10:41:53;;;;;;;19.17;4.63;;;26.20;77.70;;;;;;4994817;28;20062;-72
2023/05/27 10:44:31;;;;;;;14.05;4.28;;;26.30;78.30;;;;;;4936799;28;206784;-74
2023/05/27 10:47:04;;;;;;;19.27;4.85;;;26.80;80.20;;;;;;4997094;28;20598;-72
2023/05/27 10:49:38;;;;;;;15.57;4.15;;;27.60;79.20;;;;;;4955209;28;203116;-72
2023/05/27 10:52:12;;;;;;;14.48;3.80;;;27.30;76.90;;;;;;4990020;28;20058;-71
2023/05/27 10:54:43;;;;;;;16.42;4.60;;;27.50;77.60;;;;;;4955540;28;207316;-70
2023/05/27 10:57:10;;;;;;;18.00;4.60;;;27.60;77.70;;;;;;4987019;28;20508;-74
2023/05/27 10:59:53;;;;;;;14.65;4.07;;;27.30;77.00;;;;;;4937361;28;210208;-72
2023/05/27 11:02:20;;;;;;;14.63;4.32;;;27.70;76.90;;;;;;4992208;28;20050;-72
2023/05/27 11:04:48;;;;;;;15.80;4.25;;;27.60;76.10;;;;;;4941268;28;210271;-70
2023/05/27 11:07:18;;;;;;;14.95;4.55;;;27.60;76.00;;;;;;4986145;28;20058;-74
2023/05/27 11:09:54;;;;;;;15.40;3.90;;;27.50;77.60;;;;;;4952264;28;213323;-72
2023/05/27 11:12:22;;;;;;;15.60;4.13;;;27.80;75.80;;;;;;4990474;28;20065;-70
2023/05/27 11:14:50;;;;;;;16.08;4.35;;;27.50;75.00;;;;;;4962676;28;208070;-71
2023/05/27 11:17:18;;;;;;;13.70;4.57;;;26.80;75.10;;;;;;4991857;28;20628;-71
2023/05/27 11:19:45;;;;;;;14.98;4.47;;;27.30;76.90;;;;;;4967134;28;221196;-72
2023/05/27 11:22:13;;;;;;;19.58;4.80;;;28.00;77.60;;;;;;4994501;28;20050;-70
2023/05/27 11:24:40;;;;;;;14.75;4.15;;;28.30;75.90;;;;;;4968010;28;206530;-71
2023/05/27 11:27:11;;;;;;;16.23;4.60;;;28.40;76.10;;;;;;5012714;28;20061;-72
2023/05/27 11:29:38;;;;;;;17.60;4.85;;;28.60;74.20;;;;;;4950829;28;207775;-69
2023/05/27 11:32:09;;;;;;;18.05;5.07;;;28.40;74.20;;;;;;4991933;28;20046;-71
2023/05/27 11:34:36;;;;;;;15.52;4.38;;;28.30;73.50;;;;;;4968234;28;210165;-71
2023/05/27 11:37:04;;;;;;;15.25;4.68;;;27.70;74.20;;;;;;5018692;28;20049;-71
2023/05/27 11:39:30;;;;;;;14.35;4.20;;;27.70;74.60;;;;;;4954675;28;207391;-71
2023/05/27 11:41:56;;;;;;;15.18;4.40;;;27.70;73.50;;;;;;4992844;28;20052;-71
2023/05/27 11:44:24;;;;;;;14.98;3.75;;;27.70;74.50;;;;;;4954083;28;202798;-71
2023/05/27 11:46:51;;;;;;;12.25;3.97;;;28.50;75.80;;;;;;5000730;28;20054;-71
2023/05/27 11:49:19;;;;;;;15.88;4.03;;;29.40;74.80;;;;;;4966949;28;207968;-70
2023/05/27 11:51:47;;;;;;;12.85;3.70;;;30.00;73.60;;;;;;5007231;28;20065;-71
2023/05/27 11:54:27;;;;;;;17.98;4.65;;;29.70;73.20;;;;;;4947884;28;209329;-72
2023/05/27 11:56:56;;;;;;;17.92;4.45;;;29.60;73.40;;;;;;5014287;28;20515;-71
2023/05/27 11:59:23;;;;;;;15.20;4.60;;;29.40;72.50;;;;;;4951416;28;204388;-71
2023/05/27 12:01:51;;;;;;;15.07;4.32;;;29.40;72.50;;;;;;5003414;28;20527;-71
2023/05/27 12:04:17;;;;;;;13.65;4.22;;;29.60;73.10;;;;;;4955920;28;207943;-71
2023/05/27 12:06:45;;;;;;;13.55;4.38;;;29.30;72.00;;;;;;5000952;28;20084;-71
2023/05/27 12:09:11;;;;;;;17.20;4.20;;;29.20;72.70;;;;;;4950374;28;207251;-71
2023/05/27 12:11:38;;;;;;;15.25;4.15;;;29.70;73.00;;;;;;5005832;28;20069;-72
2023/05/27 12:14:05;;;;;;;17.80;4.65;;;29.80;73.30;;;;;;4950428;28;209659;-70
2023/05/27 12:16:31;;;;;;;17.77;4.30;;;30.10;71.70;;;;;;4998483;28;20054;-70
2023/05/27 12:18:58;;;;;;;15.77;4.22;;;29.60;70.80;;;;;;4934327;28;207349;-72
2023/05/27 12:21:24;;;;;;;15.40;3.83;;;29.70;72.00;;;;;;4997063;28;20058;-71
2023/05/27 12:23:50;;;;;;;14.32;4.30;;;29.60;72.00;;;;;;4939323;28;207763;-70
2023/05/27 12:26:17;;;;;;;14.75;4.22;;;29.80;72.60;;;;;;5007930;28;20056;-71
2023/05/27 12:28:44;;;;;;;13.15;3.90;;;29.80;72.20;;;;;;4951541;28;207614;-71
2023/05/27 12:31:10;;;;;;;16.38;5.03;;;29.80;72.50;;;;;;5010984;28;20038;-72
2023/05/27 12:33:36;;;;;;;16.48;4.85;;;29.90;69.70;;;;;;4941816;28;207215;-71
2023/05/27 12:36:05;;;;;;;16.73;4.22;;;29.20;70.60;;;;;;5009927;28;20057;-71